createdAt,value
2022-08-07T00:00:14.854Z,0.65
2022-08-07T00:02:45.189Z,0.60
2022-08-07T00:05:12.300Z,0.50
2022-08-07T00:07:40.199Z,0.50
2022-08-07T00:10:26.435Z,0.55
2022-08-07T00:13:00.294Z,0.57
2022-08-07T00:15:38.343Z,0.60
2022-08-07T00:18:24.522Z,0.80
2022-08-07T00:20:53.875Z,0.63
2022-08-07T00:23:21.475Z,0.70
2022-08-07T00:25:58.231Z,0.50
2022-08-07T00:28:31.641Z,0.60
2022-08-07T00:31:04.426Z,0.70
2022-08-07T00:33:33.836Z,0.60
2022-08-07T00:36:01.079Z,0.63
2022-08-07T00:38:31.512Z,0.60
2022-08-07T00:41:01.029Z,0.60
2022-08-07T00:44:01.340Z,0.60
2022-08-07T00:46:14.716Z,0.52
2022-08-07T00:48:42.324Z,0.68
2022-08-07T00:51:09.725Z,0.57
2022-08-07T00:53:38.844Z,0.50
2022-08-07T00:56:17.850Z,0.60
2022-08-07T00:58:47.447Z,0.60
2022-08-07T01:01:18.502Z,0.60
2022-08-07T01:03:56.205Z,0.68
2022-08-07T01:06:28.470Z,0.50
2022-08-07T01:08:58.359Z,0.60
2022-08-07T01:12:23.903Z,0.80
2022-08-07T01:14:15.528Z,0.77
2022-08-07T01:16:47.401Z,0.60
2022-08-07T01:19:19.719Z,0.55
2022-08-07T01:21:53.045Z,0.80
2022-08-07T01:24:22.722Z,0.80
2022-08-07T01:26:52.227Z,0.50
2022-08-07T01:29:23.084Z,0.50
2022-08-07T01:31:51.968Z,0.50
2022-08-07T01:34:19.807Z,0.60
2022-08-07T01:36:58.281Z,0.60
2022-08-07T01:39:40.436Z,0.50
2022-08-07T01:42:40.020Z,0.80
2022-08-07T01:45:09.731Z,0.57
2022-08-07T01:48:29.400Z,0.60
2022-08-07T01:50:32.124Z,0.70
2022-08-07T01:53:02.221Z,0.70
2022-08-07T01:55:50.063Z,0.60
2022-08-07T01:58:29.693Z,0.60
2022-08-07T02:01:59.289Z,0.63
2022-08-07T02:04:30.980Z,0.60
2022-08-07T02:07:03.181Z,0.50
2022-08-07T02:09:33.930Z,0.60
2022-08-07T02:12:30.919Z,0.55
2022-08-07T02:15:01.715Z,0.60
2022-08-07T02:17:41.362Z,0.52
2022-08-07T02:20:19.903Z,0.43
2022-08-07T02:22:55.339Z,0.65
2022-08-07T02:26:10.110Z,0.60
2022-08-07T02:28:15.098Z,0.50
2022-08-07T02:30:53.711Z,0.63
2022-08-07T02:33:23.151Z,0.60
2022-08-07T02:36:29.683Z,0.70
2022-08-07T02:38:39.838Z,0.50
2022-08-07T02:41:21.721Z,0.88
2022-08-07T02:43:51.183Z,0.60
2022-08-07T02:46:24.946Z,0.50
2022-08-07T02:48:55.041Z,0.70
2022-08-07T02:51:42.120Z,0.70
2022-08-07T02:54:13.226Z,0.60
2022-08-07T02:56:42.179Z,0.65
2022-08-07T02:59:11.669Z,0.60
2022-08-07T03:01:39.433Z,0.50
2022-08-07T03:04:13.798Z,0.60
2022-08-07T03:06:48.185Z,0.63
2022-08-07T03:09:43.268Z,0.60
2022-08-07T03:12:08.081Z,0.50
2022-08-07T03:14:48.403Z,0.63
2022-08-07T03:17:19.064Z,0.60
2022-08-07T03:19:54.630Z,0.63
2022-08-07T03:22:29.494Z,0.60
2022-08-07T03:24:59.795Z,0.60
2022-08-07T03:27:58.713Z,0.70
2022-08-07T03:30:17.655Z,0.70
2022-08-07T03:32:59.226Z,0.68
2022-08-07T03:35:43.438Z,0.60
2022-08-07T03:38:13.359Z,0.60
2022-08-07T03:40:44.156Z,0.70
2022-08-07T03:43:15.349Z,0.60
2022-08-07T03:45:50.286Z,0.50
2022-08-07T03:48:22.432Z,0.70
2022-08-07T03:50:56.130Z,0.60
2022-08-07T03:53:50.248Z,0.70
2022-08-07T03:56:33.146Z,0.63
2022-08-07T03:59:07.956Z,0.77
2022-08-07T04:01:43.189Z,0.70
2022-08-07T04:04:17.194Z,0.70
2022-08-07T04:06:46.235Z,0.65
2022-08-07T04:09:19.418Z,0.50
2022-08-07T04:12:23.561Z,0.68
2022-08-07T04:14:43.757Z,0.70
2022-08-07T04:17:21.046Z,0.80
2022-08-07T04:19:52.187Z,0.70
2022-08-07T04:22:27.555Z,0.60
2022-08-07T04:25:01.574Z,0.70
2022-08-07T04:27:36.001Z,0.60
2022-08-07T04:30:21.196Z,0.88
2022-08-07T04:33:07.565Z,0.60
2022-08-07T04:35:39.616Z,0.70
2022-08-07T04:38:13.321Z,0.80
2022-08-07T04:40:51.714Z,0.50
2022-08-07T04:44:12.602Z,0.70
2022-08-07T04:46:34.514Z,0.77
2022-08-07T04:49:37.764Z,0.70
2022-08-07T04:52:29.088Z,0.60
2022-08-07T04:55:15.521Z,0.70
2022-08-07T04:58:07.470Z,0.60
2022-08-07T05:00:51.700Z,0.50
2022-08-07T05:04:00.936Z,0.60
2022-08-07T05:06:43.247Z,0.60
2022-08-07T05:09:43.443Z,0.68
2022-08-07T05:12:10.704Z,0.70
2022-08-07T05:14:55.794Z,0.70
2022-08-07T05:17:51.670Z,0.60
2022-08-07T05:20:25.583Z,0.60
2022-08-07T05:22:59.711Z,0.80
2022-08-07T05:25:54.389Z,0.70
2022-08-07T05:28:23.115Z,0.60
2022-08-07T05:30:56.911Z,0.55
2022-08-07T05:33:28.466Z,0.60
2022-08-07T05:35:56.225Z,0.63
2022-08-07T05:39:01.045Z,0.60
2022-08-07T05:41:16.603Z,0.60
2022-08-07T05:44:06.761Z,0.60
2022-08-07T05:46:37.610Z,0.93
2022-08-07T05:49:11.961Z,0.57
2022-08-07T05:51:46.198Z,0.50
2022-08-07T05:54:30.944Z,0.80
2022-08-07T05:57:03.979Z,0.70
2022-08-07T05:59:46.556Z,0.52
2022-08-07T06:02:29.621Z,0.60
2022-08-07T06:05:04.739Z,0.50
2022-08-07T06:08:13.834Z,0.60
2022-08-07T06:10:22.632Z,0.57
2022-08-07T06:12:50.127Z,0.50
2022-08-07T06:15:20.122Z,0.60
2022-08-07T06:17:53.552Z,0.60
2022-08-07T06:20:31.668Z,0.47
2022-08-07T06:23:02.429Z,0.70
2022-08-07T06:25:54.266Z,0.60
2022-08-07T06:28:27.180Z,0.45
2022-08-07T06:30:56.558Z,0.63
2022-08-07T06:33:26.197Z,0.60
2022-08-07T06:36:13.488Z,0.60
2022-08-07T06:38:51.352Z,0.70
2022-08-07T06:42:00.770Z,0.70
2022-08-07T06:44:40.846Z,0.40
2022-08-07T06:47:10.480Z,0.75
2022-08-07T06:49:52.186Z,0.77
2022-08-07T06:52:35.743Z,0.52
2022-08-07T06:55:34.102Z,0.77
2022-08-07T06:58:10.206Z,0.75
2022-08-07T07:00:46.055Z,0.60
2022-08-07T07:03:14.559Z,0.60
2022-08-07T07:06:03.343Z,0.60
2022-08-07T07:08:34.184Z,0.40
2022-08-07T07:11:13.202Z,0.50
2022-08-07T07:13:57.757Z,0.60
2022-08-07T07:16:45.219Z,0.50
2022-08-07T07:19:55.975Z,0.60
2022-08-07T07:22:33.862Z,0.70
2022-08-07T07:25:02.935Z,0.60
2022-08-07T07:28:02.314Z,0.60
2022-08-07T07:30:39.837Z,0.60
2022-08-07T07:33:11.402Z,0.68
2022-08-07T07:35:43.941Z,0.50
2022-08-07T07:38:28.922Z,0.50
2022-08-07T07:41:02.452Z,0.85
2022-08-07T07:44:14.614Z,0.63
2022-08-07T07:46:40.188Z,0.60
2022-08-07T07:50:35.770Z,0.60
2022-08-07T07:52:00.241Z,0.60
2022-08-07T07:54:28.281Z,0.65
2022-08-07T07:56:57.697Z,0.70
2022-08-07T07:59:52.720Z,0.57
2022-08-07T08:02:34.189Z,0.63
2022-08-07T08:05:04.558Z,0.50
2022-08-07T08:07:35.982Z,0.70
2022-08-07T08:10:14.967Z,0.50
2022-08-07T08:13:00.035Z,0.40
2022-08-07T08:15:57.615Z,0.70
2022-08-07T08:18:25.165Z,0.65
2022-08-07T08:20:54.073Z,0.70
2022-08-07T08:23:41.098Z,0.77
2022-08-07T08:26:08.405Z,0.57
2022-08-07T08:28:43.410Z,0.60
2022-08-07T08:31:18.270Z,0.68
2022-08-07T08:34:00.247Z,0.60
2022-08-07T08:36:31.966Z,0.50
2022-08-07T08:39:02.880Z,0.50
2022-08-07T08:41:56.658Z,0.57
2022-08-07T08:44:44.771Z,0.68
2022-08-07T08:47:21.600Z,0.65
2022-08-07T08:50:18.982Z,0.70
2022-08-07T08:53:49.884Z,0.52
2022-08-07T08:56:24.768Z,0.50
2022-08-07T08:59:27.624Z,0.70
2022-08-07T09:02:35.228Z,0.63
2022-08-07T09:05:09.854Z,0.80
2022-08-07T09:07:58.282Z,0.70
2022-08-07T09:10:27.814Z,0.70
2022-08-07T09:13:14.655Z,0.60
2022-08-07T09:16:25.296Z,0.70
2022-08-07T09:18:58.445Z,0.70
2022-08-07T09:22:09.929Z,0.80
2022-08-07T09:24:55.046Z,0.68
2022-08-07T09:30:02.249Z,0.80
2022-08-07T09:31:18.652Z,0.73
2022-08-07T09:33:56.794Z,0.70
2022-08-07T09:37:05.128Z,0.60
2022-08-07T09:40:05.773Z,0.77
2022-08-07T09:42:56.693Z,0.60
2022-08-07T09:47:37.257Z,0.70
2022-08-07T09:50:02.070Z,0.80
2022-08-07T09:52:09.852Z,0.70
2022-08-07T09:54:49.945Z,0.77
2022-08-07T09:57:46.525Z,0.95
2022-08-07T10:00:30.045Z,0.80
2022-08-07T10:04:06.675Z,0.80
2022-08-07T10:06:35.786Z,0.80
2022-08-07T10:09:13.303Z,0.60
2022-08-07T10:12:05.585Z,0.88
2022-08-07T10:15:15.468Z,0.77
2022-08-07T10:18:08.438Z,0.90
2022-08-07T10:21:19.944Z,0.88
2022-08-07T10:24:21.520Z,0.85
2022-08-07T10:27:10.515Z,0.90
2022-08-07T10:30:06.642Z,0.80
2022-08-07T10:33:07.159Z,0.70
2022-08-07T10:35:55.306Z,0.80
2022-08-07T10:38:36.136Z,0.77
2022-08-07T10:41:52.224Z,0.90
2022-08-07T10:44:38.528Z,0.90
2022-08-07T10:47:50.552Z,1.00
2022-08-07T10:50:25.895Z,1.10
2022-08-07T10:53:07.936Z,1.00
2022-08-07T10:55:50.899Z,0.80
2022-08-07T10:58:40.358Z,1.00
2022-08-07T11:01:15.630Z,0.85
2022-08-07T11:03:55.032Z,0.70
2022-08-07T11:06:32.120Z,0.80
2022-08-07T11:10:07.589Z,0.90
2022-08-07T11:12:14.223Z,0.80
2022-08-07T11:14:59.921Z,0.70
2022-08-07T11:17:45.352Z,0.75
2022-08-07T11:20:27.297Z,0.80
2022-08-07T11:23:09.224Z,0.80
2022-08-07T11:25:50.172Z,0.80
2022-08-07T11:28:36.590Z,0.70
2022-08-07T11:31:19.935Z,0.80
2022-08-07T11:34:00.082Z,0.70
2022-08-07T11:36:36.119Z,1.00
2022-08-07T11:39:19.486Z,0.90
2022-08-07T11:42:01.473Z,0.80
2022-08-07T11:44:52.065Z,0.70
2022-08-07T11:47:26.111Z,0.80
2022-08-07T11:50:44.656Z,0.80
2022-08-07T11:53:35.311Z,0.88
2022-08-07T11:56:26.833Z,0.60
2022-08-07T12:00:08.127Z,0.77
2022-08-07T12:02:30.393Z,0.80
2022-08-07T12:05:41.690Z,0.80
2022-08-07T12:08:26.031Z,0.98
2022-08-07T12:11:21.488Z,0.80
2022-08-07T12:14:23.982Z,0.80
2022-08-07T12:17:30.215Z,0.75
2022-08-07T12:20:30.362Z,0.82
2022-08-07T12:24:05.069Z,0.90
2022-08-07T12:26:29.956Z,0.88
2022-08-07T12:29:01.015Z,0.75
2022-08-07T12:32:04.670Z,0.80
2022-08-07T12:34:38.454Z,0.85
2022-08-07T12:37:22.888Z,0.80
2022-08-07T12:39:52.165Z,0.80
2022-08-07T12:42:27.636Z,0.90
2022-08-07T12:44:58.090Z,0.80
2022-08-07T12:47:50.664Z,1.00
2022-08-07T12:50:39.126Z,0.90
2022-08-07T12:54:03.078Z,0.90
2022-08-07T12:56:35.919Z,0.80
2022-08-07T12:59:08.247Z,0.70
2022-08-07T13:01:59.835Z,0.70
2022-08-07T13:05:15.159Z,0.90
2022-08-07T13:08:22.961Z,0.90
2022-08-07T13:11:17.312Z,0.90
2022-08-07T13:14:18.781Z,0.90
2022-08-07T13:17:02.441Z,1.00
2022-08-07T13:19:51.948Z,1.00
2022-08-07T13:22:39.568Z,0.90
2022-08-07T13:25:28.693Z,0.85
2022-08-07T13:28:10.973Z,0.80
2022-08-07T13:30:49.132Z,1.00
2022-08-07T13:34:30.667Z,0.88
2022-08-07T13:36:40.944Z,0.80
2022-08-07T13:40:33.051Z,1.00
2022-08-07T13:42:21.543Z,1.10
2022-08-07T13:45:20.488Z,0.82
2022-08-07T13:48:06.515Z,1.10
2022-08-07T13:50:32.785Z,1.02
2022-08-07T13:53:05.297Z,1.00
2022-08-07T13:55:34.043Z,1.00
2022-08-07T13:58:31.834Z,1.00
2022-08-07T14:01:08.840Z,0.80
2022-08-07T14:04:05.377Z,0.80
2022-08-07T14:06:35.824Z,0.90
2022-08-07T14:09:05.087Z,1.10
2022-08-07T14:11:53.780Z,0.80
2022-08-07T14:14:41.456Z,0.60
2022-08-07T14:17:32.356Z,0.68
2022-08-07T14:20:43.382Z,0.80
2022-08-07T14:23:01.706Z,0.90
2022-08-07T14:25:39.528Z,1.00
2022-08-07T14:28:14.884Z,1.20
2022-08-07T14:30:52.077Z,0.90
2022-08-07T14:33:23.492Z,0.93
2022-08-07T14:35:55.988Z,1.00
2022-08-07T14:38:30.667Z,0.70
2022-08-07T14:41:12.214Z,0.60
2022-08-07T14:43:56.932Z,0.85
2022-08-07T14:49:57.319Z,0.80
2022-08-07T14:52:10.372Z,0.80
2022-08-07T14:54:42.934Z,1.00
2022-08-07T14:57:19.724Z,0.82
2022-08-07T15:00:04.999Z,0.80
2022-08-07T15:02:34.668Z,0.82
2022-08-07T15:05:02.675Z,0.80
2022-08-07T15:07:50.798Z,0.85
2022-08-07T15:16:20.152Z,0.90
2022-08-07T15:19:05.588Z,0.90
2022-08-07T15:21:44.429Z,0.70
2022-08-07T15:27:29.019Z,0.80
2022-08-07T15:33:01.600Z,0.73
2022-08-07T15:36:00.857Z,0.60
2022-08-07T15:42:43.966Z,0.85
2022-08-07T15:44:13.168Z,0.80
2022-08-07T15:50:05.503Z,0.70
2022-08-07T15:52:29.647Z,0.80
2022-08-07T15:55:02.593Z,0.82
2022-08-07T15:57:47.750Z,0.73
2022-08-07T16:00:31.355Z,0.73
2022-08-07T16:03:47.298Z,0.80
2022-08-07T16:06:10.372Z,0.70
2022-08-07T16:08:42.473Z,0.88
2022-08-07T16:11:42.907Z,0.60
2022-08-07T16:14:17.217Z,0.70
2022-08-07T16:17:15.342Z,0.90
2022-08-07T16:19:59.563Z,0.60
2022-08-07T16:22:33.354Z,0.90
2022-08-07T16:25:23.312Z,0.80
2022-08-07T16:28:14.175Z,0.70
2022-08-07T16:31:51.394Z,0.60
2022-08-07T16:34:25.792Z,0.70
2022-08-07T16:38:03.866Z,0.70
2022-08-07T16:40:30.708Z,0.80
2022-08-07T16:44:06.182Z,0.70
2022-08-07T16:47:08.746Z,0.75
2022-08-07T16:50:29.136Z,0.70
2022-08-07T16:52:55.602Z,0.60
2022-08-07T16:55:47.804Z,0.63
2022-08-07T16:59:10.889Z,0.80
2022-08-07T17:01:57.573Z,0.60
2022-08-07T17:04:58.543Z,0.70
2022-08-07T17:07:55.760Z,0.57
2022-08-07T17:10:32.596Z,0.70
2022-08-07T17:13:23.223Z,0.70
2022-08-07T17:15:57.407Z,0.60
2022-08-07T17:18:35.696Z,0.70
2022-08-07T17:21:19.090Z,0.88
2022-08-07T17:24:01.847Z,0.60
2022-08-07T17:26:58.426Z,0.75
2022-08-07T17:30:15.639Z,0.70
2022-08-07T17:32:52.806Z,0.70
2022-08-07T17:35:49.786Z,0.73
2022-08-07T17:38:33.230Z,0.80
2022-08-07T17:42:03.527Z,0.80
2022-08-07T17:44:41.583Z,0.80
2022-08-07T17:47:42.260Z,0.70
2022-08-07T17:50:16.483Z,0.63
2022-08-07T17:52:52.282Z,0.60
2022-08-07T17:56:00.976Z,0.70
2022-08-07T17:58:46.441Z,0.70
2022-08-07T18:01:22.623Z,0.60
2022-08-07T18:04:30.713Z,0.70
2022-08-07T18:07:20.130Z,0.70
2022-08-07T18:10:05.896Z,0.60
2022-08-07T18:13:00.623Z,0.88
2022-08-07T18:15:39.156Z,0.77
2022-08-07T18:18:47.643Z,0.80
2022-08-07T18:21:41.443Z,0.80
2022-08-07T18:24:33.364Z,0.70
2022-08-07T18:27:39.150Z,0.68
2022-08-07T18:30:30.857Z,0.70
2022-08-07T18:33:28.696Z,0.63
2022-08-07T18:36:14.848Z,0.63
2022-08-07T18:40:08.568Z,0.70
2022-08-07T18:42:13.220Z,0.68
2022-08-07T18:47:44.792Z,0.80
2022-08-07T18:50:39.480Z,0.68
2022-08-07T18:53:21.159Z,1.00
2022-08-07T18:56:13.411Z,0.80
2022-08-07T18:59:05.243Z,0.68
2022-08-07T19:02:32.485Z,0.70
2022-08-07T19:04:54.789Z,0.70
2022-08-07T19:07:51.875Z,0.90
2022-08-07T19:10:51.992Z,0.70
2022-08-07T19:13:27.540Z,0.70
2022-08-07T19:17:04.110Z,0.68
2022-08-07T19:18:59.750Z,0.70
2022-08-07T19:21:45.007Z,0.60
2022-08-07T19:24:43.606Z,0.70
2022-08-07T19:28:56.497Z,0.80
2022-08-07T19:31:05.189Z,0.80
2022-08-07T19:33:01.754Z,0.70
2022-08-07T19:35:40.869Z,0.90
2022-08-07T19:38:15.944Z,0.80
2022-08-07T19:40:49.600Z,0.90
2022-08-07T19:43:45.115Z,0.77
2022-08-07T19:46:11.223Z,0.60
2022-08-07T19:48:42.302Z,0.80
2022-08-07T19:51:20.409Z,0.80
2022-08-07T19:54:33.747Z,0.80
2022-08-07T19:57:52.349Z,0.80
2022-08-07T19:59:41.967Z,0.80
2022-08-07T20:02:19.656Z,0.70
2022-08-07T20:05:00.419Z,0.70
2022-08-07T20:07:47.071Z,0.80
2022-08-07T20:10:35.816Z,0.90
2022-08-07T20:13:42.017Z,0.90
2022-08-07T20:16:32.334Z,1.00
2022-08-07T20:18:59.024Z,0.82
2022-08-07T20:21:42.134Z,0.95
2022-08-07T20:24:23.186Z,0.70
2022-08-07T20:26:54.758Z,0.70
2022-08-07T20:29:57.536Z,0.80
2022-08-07T20:32:39.753Z,0.80
2022-08-07T20:35:15.999Z,0.90
2022-08-07T20:37:57.801Z,0.80
2022-08-07T20:40:32.205Z,1.05
2022-08-07T20:43:02.918Z,0.80
2022-08-07T20:46:29.107Z,0.70
2022-08-07T20:48:29.987Z,0.80
2022-08-07T20:51:03.516Z,0.90
2022-08-07T20:54:04.202Z,0.90
2022-08-07T20:56:27.398Z,0.80
2022-08-07T20:58:58.839Z,1.00
2022-08-07T21:01:26.029Z,1.00
2022-08-07T21:04:22.649Z,0.82
2022-08-07T21:06:53.681Z,0.80
2022-08-07T21:09:24.204Z,1.02
2022-08-07T21:11:57.266Z,0.90
2022-08-07T21:14:33.933Z,0.80
2022-08-07T21:18:01.047Z,1.02
2022-08-07T21:20:04.563Z,0.90
2022-08-07T21:22:38.511Z,0.80
2022-08-07T21:25:17.071Z,0.90
2022-08-07T21:28:13.692Z,0.90
2022-08-07T21:31:02.515Z,1.10
2022-08-07T21:33:41.443Z,0.90
2022-08-07T21:36:11.648Z,0.90
2022-08-07T21:39:46.854Z,0.95
2022-08-07T21:42:10.777Z,0.90
2022-08-07T21:46:07.869Z,1.30
2022-08-07T21:48:28.755Z,0.90
2022-08-07T21:51:25.463Z,1.00
2022-08-07T21:53:58.074Z,1.08
2022-08-07T21:56:48.310Z,0.98
2022-08-07T22:00:04.183Z,0.85
2022-08-07T22:02:50.247Z,0.90
2022-08-07T22:05:45.227Z,1.00
2022-08-07T22:08:14.391Z,1.00
2022-08-07T22:10:50.223Z,1.10
2022-08-07T22:13:24.445Z,1.00
2022-08-07T22:16:39.391Z,1.10
2022-08-07T22:19:30.110Z,0.95
2022-08-07T22:22:21.051Z,1.05
2022-08-07T22:25:07.688Z,1.00
2022-08-07T22:28:29.384Z,1.10
2022-08-07T22:31:10.374Z,1.30
2022-08-07T22:33:56.418Z,1.00
2022-08-07T22:36:52.521Z,1.10
2022-08-07T22:39:56.318Z,1.17
2022-08-07T22:42:29.695Z,1.10
2022-08-07T22:45:04.116Z,1.10
2022-08-07T22:48:31.565Z,1.13
2022-08-07T22:51:15.127Z,1.27
2022-08-07T22:54:05.661Z,1.10
2022-08-07T22:57:07.928Z,1.40
2022-08-07T22:59:50.202Z,0.93
2022-08-07T23:02:51.625Z,0.95
2022-08-07T23:06:07.451Z,1.40
2022-08-07T23:10:00.742Z,1.10
2022-08-07T23:12:06.428Z,1.00
2022-08-07T23:15:12.389Z,1.05
2022-08-07T23:18:01.946Z,0.90
2022-08-07T23:20:52.438Z,1.20
2022-08-07T23:24:06.671Z,1.20
2022-08-07T23:26:57.941Z,1.08
2022-08-07T23:30:38.154Z,1.00
2022-08-07T23:34:21.777Z,1.27
2022-08-07T23:35:56.205Z,1.20
2022-08-07T23:38:58.701Z,0.90
2022-08-07T23:42:15.708Z,0.98
2022-08-07T23:45:03.504Z,0.95
2022-08-07T23:47:42.115Z,1.08
2022-08-07T23:50:18.155Z,1.13
2022-08-07T23:52:57.981Z,1.17
2022-08-07T23:55:51.970Z,1.10
2022-08-07T23:58:43.683Z,1.15
